Spade, Texas
Current Conditions -  °F | °C
As of 12:53 PM on Sunday 23 Nov 2014 (Local Time) from KLBB Reporting Station
Scattered Clouds Scattered Clouds  
Wind Chill: 66°   Ceiling: Unl
Heat Index: 66°   Visibility: 10mi
Dew Point: 25°   Wind: 18mph
Humidity: 21%   Direction: 330°NNW
Pressure: 29.59"   Gusts: 29mph
Location:  33.93°N, 102.15°W
Report Text: KLBB 231853Z 33016G25KT 10SM SCT090 19/M04 A2959 RMK AO2 PK WND 32032/1759 SLP994 T01891039
Loading
Personal Weather Stations






























Interactive Weather Map New forecast layout! Learn more

10-Day Weather Forecast

Advertisements
Track Severe Weather on mobile